sensor_id;sensor_type;location;lat;lon;timestamp;P1;durP1;ratioP1;P2;durP2;ratioP2
58647;SDS011;45992;45.920;20.074;2022-09-01T00:03:27;8.07;;;2.80;;
58647;SDS011;45992;45.920;20.074;2022-09-01T00:05:53;7.57;;;2.65;;
58647;SDS011;45992;45.920;20.074;2022-09-01T00:08:21;8.25;;;2.75;;
58647;SDS011;45992;45.920;20.074;2022-09-01T00:10:47;6.97;;;2.50;;
58647;SDS011;45992;45.920;20.074;2022-09-01T00:13:13;6.03;;;2.50;;
58647;SDS011;45992;45.920;20.074;2022-09-01T00:15:39;6.28;;;2.90;;
58647;SDS011;45992;45.920;20.074;2022-09-01T00:18:05;5.95;;;2.63;;
58647;SDS011;45992;45.920;20.074;2022-09-01T00:20:31;7.07;;;2.40;;
58647;SDS011;45992;45.920;20.074;2022-09-01T00:22:57;7.88;;;2.33;;
58647;SDS011;45992;45.920;20.074;2022-09-01T00:25:24;5.63;;;2.20;;
58647;SDS011;45992;45.920;20.074;2022-09-01T00:27:51;6.05;;;2.53;;
58647;SDS011;45992;45.920;20.074;2022-09-01T00:30:18;6.55;;;2.00;;
58647;SDS011;45992;45.920;20.074;2022-09-01T00:35:14;6.55;;;2.40;;
58647;SDS011;45992;45.920;20.074;2022-09-01T00:37:40;6.13;;;2.40;;
58647;SDS011;45992;45.920;20.074;2022-09-01T00:40:07;6.45;;;2.58;;
58647;SDS011;45992;45.920;20.074;2022-09-01T00:42:34;6.07;;;2.63;;
58647;SDS011;45992;45.920;20.074;2022-09-01T00:45:00;6.00;;;2.30;;
58647;SDS011;45992;45.920;20.074;2022-09-01T00:47:26;5.35;;;1.95;;
58647;SDS011;45992;45.920;20.074;2022-09-01T00:49:52;6.53;;;2.30;;
58647;SDS011;45992;45.920;20.074;2022-09-01T00:52:20;5.40;;;2.45;;
58647;SDS011;45992;45.920;20.074;2022-09-01T00:54:48;5.63;;;2.50;;
58647;SDS011;45992;45.920;20.074;2022-09-01T00:57:15;5.78;;;2.33;;
58647;SDS011;45992;45.920;20.074;2022-09-01T00:59:52;6.97;;;2.35;;
58647;SDS011;45992;45.920;20.074;2022-09-01T01:02:19;6.70;;;2.75;;
58647;SDS011;45992;45.920;20.074;2022-09-01T01:04:46;5.30;;;2.00;;
58647;SDS011;45992;45.920;20.074;2022-09-01T01:07:12;7.00;;;2.10;;
58647;SDS011;45992;45.920;20.074;2022-09-01T01:09:40;5.35;;;2.33;;
58647;SDS011;45992;45.920;20.074;2022-09-01T01:12:07;5.63;;;2.28;;
58647;SDS011;45992;45.920;20.074;2022-09-01T01:14:37;6.80;;;2.40;;
58647;SDS011;45992;45.920;20.074;2022-09-01T01:17:05;5.25;;;2.10;;
58647;SDS011;45992;45.920;20.074;2022-09-01T01:25:26;6.00;;;2.20;;
58647;SDS011;45992;45.920;20.074;2022-09-01T01:30:19;7.45;;;1.90;;
58647;SDS011;45992;45.920;20.074;2022-09-01T01:32:45;5.03;;;1.70;;
58647;SDS011;45992;45.920;20.074;2022-09-01T01:35:13;5.60;;;2.15;;
58647;SDS011;45992;45.920;20.074;2022-09-01T01:37:43;6.30;;;2.22;;
58647;SDS011;45992;45.920;20.074;2022-09-01T01:40:11;5.20;;;1.80;;
58647;SDS011;45992;45.920;20.074;2022-09-01T01:42:41;5.93;;;2.13;;
58647;SDS011;45992;45.920;20.074;2022-09-01T01:45:08;5.53;;;2.03;;
58647;SDS011;45992;45.920;20.074;2022-09-01T01:47:36;8.18;;;1.73;;
58647;SDS011;45992;45.920;20.074;2022-09-01T01:50:02;5.55;;;2.00;;
58647;SDS011;45992;45.920;20.074;2022-09-01T01:52:33;6.85;;;2.10;;
58647;SDS011;45992;45.920;20.074;2022-09-01T01:54:59;7.05;;;2.08;;
58647;SDS011;45992;45.920;20.074;2022-09-01T01:57:25;7.47;;;1.90;;
58647;SDS011;45992;45.920;20.074;2022-09-01T01:59:59;5.15;;;1.80;;
58647;SDS011;45992;45.920;20.074;2022-09-01T02:02:25;6.80;;;1.95;;
58647;SDS011;45992;45.920;20.074;2022-09-01T02:04:51;7.70;;;2.03;;
58647;SDS011;45992;45.920;20.074;2022-09-01T02:07:19;4.93;;;1.77;;
58647;SDS011;45992;45.920;20.074;2022-09-01T02:09:45;6.35;;;1.80;;
58647;SDS011;45992;45.920;20.074;2022-09-01T02:12:12;6.05;;;1.88;;
58647;SDS011;45992;45.920;20.074;2022-09-01T02:14:43;6.22;;;1.80;;
58647;SDS011;45992;45.920;20.074;2022-09-01T02:17:09;4.85;;;1.67;;
58647;SDS011;45992;45.920;20.074;2022-09-01T02:19:35;6.63;;;1.98;;
58647;SDS011;45992;45.920;20.074;2022-09-01T02:22:06;4.95;;;1.75;;
58647;SDS011;45992;45.920;20.074;2022-09-01T02:24:34;5.70;;;1.58;;
58647;SDS011;45992;45.920;20.074;2022-09-01T02:27:00;6.78;;;1.73;;
58647;SDS011;45992;45.920;20.074;2022-09-01T02:29:27;4.95;;;1.70;;
58647;SDS011;45992;45.920;20.074;2022-09-01T02:31:54;5.22;;;1.80;;
58647;SDS011;45992;45.920;20.074;2022-09-01T02:34:21;5.05;;;1.63;;
58647;SDS011;45992;45.920;20.074;2022-09-01T02:36:49;7.90;;;1.80;;
58647;SDS011;45992;45.920;20.074;2022-09-01T02:39:17;5.10;;;1.60;;
58647;SDS011;45992;45.920;20.074;2022-09-01T02:41:44;5.78;;;1.98;;
58647;SDS011;45992;45.920;20.074;2022-09-01T02:44:10;4.97;;;1.60;;
58647;SDS011;45992;45.920;20.074;2022-09-01T02:46:40;5.05;;;1.95;;
58647;SDS011;45992;45.920;20.074;2022-09-01T02:49:10;5.50;;;1.60;;
58647;SDS011;45992;45.920;20.074;2022-09-01T02:51:42;5.03;;;1.58;;
58647;SDS011;45992;45.920;20.074;2022-09-01T02:54:09;6.57;;;2.05;;
58647;SDS011;45992;45.920;20.074;2022-09-01T02:56:39;5.55;;;1.80;;
58647;SDS011;45992;45.920;20.074;2022-09-01T02:59:05;6.70;;;1.63;;
58647;SDS011;45992;45.920;20.074;2022-09-01T03:01:35;5.65;;;1.60;;
58647;SDS011;45992;45.920;20.074;2022-09-01T03:04:04;4.82;;;1.60;;
58647;SDS011;45992;45.920;20.074;2022-09-01T03:06:31;5.28;;;1.73;;
58647;SDS011;45992;45.920;20.074;2022-09-01T03:08:58;6.95;;;2.08;;
58647;SDS011;45992;45.920;20.074;2022-09-01T03:11:25;6.07;;;2.00;;
58647;SDS011;45992;45.920;20.074;2022-09-01T03:16:17;7.32;;;2.55;;
58647;SDS011;45992;45.920;20.074;2022-09-01T03:18:44;5.05;;;1.80;;
58647;SDS011;45992;45.920;20.074;2022-09-01T03:21:10;5.90;;;2.10;;
58647;SDS011;45992;45.920;20.074;2022-09-01T03:23:41;8.45;;;1.90;;
58647;SDS011;45992;45.920;20.074;2022-09-01T03:28:33;7.40;;;2.15;;
58647;SDS011;45992;45.920;20.074;2022-09-01T03:31:01;5.72;;;2.00;;
58647;SDS011;45992;45.920;20.074;2022-09-01T03:33:27;6.70;;;2.08;;
58647;SDS011;45992;45.920;20.074;2022-09-01T03:35:54;5.47;;;2.00;;
58647;SDS011;45992;45.920;20.074;2022-09-01T03:38:21;6.13;;;2.25;;
58647;SDS011;45992;45.920;20.074;2022-09-01T03:40:56;5.88;;;2.40;;
58647;SDS011;45992;45.920;20.074;2022-09-01T03:43:26;6.00;;;2.03;;
58647;SDS011;45992;45.920;20.074;2022-09-01T03:45:56;6.10;;;2.20;;
58647;SDS011;45992;45.920;20.074;2022-09-01T03:48:24;5.22;;;1.98;;
58647;SDS011;45992;45.920;20.074;2022-09-01T03:50:52;6.00;;;2.00;;
58647;SDS011;45992;45.920;20.074;2022-09-01T03:58:15;5.20;;;1.90;;
58647;SDS011;45992;45.920;20.074;2022-09-01T04:00:44;6.20;;;2.38;;
58647;SDS011;45992;45.920;20.074;2022-09-01T04:03:11;7.57;;;2.20;;
58647;SDS011;45992;45.920;20.074;2022-09-01T04:05:42;8.05;;;2.30;;
58647;SDS011;45992;45.920;20.074;2022-09-01T04:08:09;5.47;;;2.25;;
58647;SDS011;45992;45.920;20.074;2022-09-01T04:10:51;6.55;;;2.38;;
58647;SDS011;45992;45.920;20.074;2022-09-01T04:13:19;5.22;;;2.08;;
58647;SDS011;45992;45.920;20.074;2022-09-01T04:15:46;5.55;;;2.40;;
58647;SDS011;45992;45.920;20.074;2022-09-01T04:18:12;6.55;;;2.85;;
58647;SDS011;45992;45.920;20.074;2022-09-01T04:20:45;6.82;;;2.40;;
58647;SDS011;45992;45.920;20.074;2022-09-01T04:23:33;6.00;;;2.40;;
58647;SDS011;45992;45.920;20.074;2022-09-01T04:28:30;7.97;;;2.35;;
58647;SDS011;45992;45.920;20.074;2022-09-01T04:30:58;6.10;;;2.20;;
58647;SDS011;45992;45.920;20.074;2022-09-01T04:33:29;6.35;;;2.55;;
58647;SDS011;45992;45.920;20.074;2022-09-01T04:36:04;5.85;;;2.40;;
58647;SDS011;45992;45.920;20.074;2022-09-01T04:38:30;5.38;;;2.47;;
58647;SDS011;45992;45.920;20.074;2022-09-01T04:41:02;6.30;;;2.85;;
58647;SDS011;45992;45.920;20.074;2022-09-01T04:43:30;5.47;;;2.20;;
58647;SDS011;45992;45.920;20.074;2022-09-01T04:45:56;6.75;;;2.70;;
58647;SDS011;45992;45.920;20.074;2022-09-01T04:50:49;7.03;;;2.40;;
58647;SDS011;45992;45.920;20.074;2022-09-01T04:53:16;6.15;;;2.40;;
58647;SDS011;45992;45.920;20.074;2022-09-01T04:55:43;7.28;;;2.47;;
58647;SDS011;45992;45.920;20.074;2022-09-01T05:00:42;5.70;;;2.65;;
58647;SDS011;45992;45.920;20.074;2022-09-01T05:03:09;7.40;;;2.40;;
58647;SDS011;45992;45.920;20.074;2022-09-01T05:05:37;7.30;;;2.25;;
58647;SDS011;45992;45.920;20.074;2022-09-01T05:08:07;9.75;;;3.28;;
58647;SDS011;45992;45.920;20.074;2022-09-01T05:10:37;5.85;;;2.50;;
58647;SDS011;45992;45.920;20.074;2022-09-01T05:13:06;6.85;;;2.40;;
58647;SDS011;45992;45.920;20.074;2022-09-01T05:15:35;6.75;;;2.55;;
58647;SDS011;45992;45.920;20.074;2022-09-01T05:18:01;6.03;;;2.50;;
58647;SDS011;45992;45.920;20.074;2022-09-01T05:20:35;5.82;;;2.33;;
58647;SDS011;45992;45.920;20.074;2022-09-01T05:23:02;6.32;;;2.92;;
58647;SDS011;45992;45.920;20.074;2022-09-01T05:25:29;7.18;;;2.40;;
58647;SDS011;45992;45.920;20.074;2022-09-01T05:27:56;7.10;;;2.47;;
58647;SDS011;45992;45.920;20.074;2022-09-01T05:30:22;5.53;;;2.15;;
58647;SDS011;45992;45.920;20.074;2022-09-01T05:32:52;6.35;;;2.30;;
58647;SDS011;45992;45.920;20.074;2022-09-01T05:35:19;8.45;;;2.60;;
58647;SDS011;45992;45.920;20.074;2022-09-01T05:37:48;6.50;;;2.10;;
58647;SDS011;45992;45.920;20.074;2022-09-01T05:40:15;6.90;;;2.30;;
58647;SDS011;45992;45.920;20.074;2022-09-01T05:42:42;5.93;;;2.25;;
58647;SDS011;45992;45.920;20.074;2022-09-01T05:45:08;5.47;;;2.60;;
58647;SDS011;45992;45.920;20.074;2022-09-01T05:47:36;8.43;;;2.88;;
58647;SDS011;45992;45.920;20.074;2022-09-01T05:50:03;7.72;;;3.35;;
58647;SDS011;45992;45.920;20.074;2022-09-01T05:52:32;9.55;;;3.33;;
58647;SDS011;45992;45.920;20.074;2022-09-01T05:54:58;8.73;;;3.33;;
58647;SDS011;45992;45.920;20.074;2022-09-01T05:57:25;6.35;;;3.50;;
58647;SDS011;45992;45.920;20.074;2022-09-01T05:59:51;8.30;;;3.85;;
58647;SDS011;45992;45.920;20.074;2022-09-01T06:02:20;8.02;;;3.78;;
58647;SDS011;45992;45.920;20.074;2022-09-01T06:07:13;7.70;;;3.67;;
58647;SDS011;45992;45.920;20.074;2022-09-01T06:09:40;8.07;;;4.35;;
58647;SDS011;45992;45.920;20.074;2022-09-01T06:12:07;8.50;;;4.50;;
58647;SDS011;45992;45.920;20.074;2022-09-01T06:14:41;14.57;;;5.80;;
58647;SDS011;45992;45.920;20.074;2022-09-01T06:17:08;7.22;;;4.25;;
58647;SDS011;45992;45.920;20.074;2022-09-01T06:19:35;9.73;;;4.40;;
58647;SDS011;45992;45.920;20.074;2022-09-01T06:22:02;9.02;;;4.13;;
58647;SDS011;45992;45.920;20.074;2022-09-01T06:24:28;11.13;;;4.05;;
58647;SDS011;45992;45.920;20.074;2022-09-01T06:26:54;11.45;;;4.63;;
58647;SDS011;45992;45.920;20.074;2022-09-01T06:29:20;11.60;;;4.82;;
58647;SDS011;45992;45.920;20.074;2022-09-01T06:31:46;10.32;;;4.45;;
58647;SDS011;45992;45.920;20.074;2022-09-01T06:34:15;10.55;;;4.30;;
58647;SDS011;45992;45.920;20.074;2022-09-01T06:36:42;9.50;;;4.43;;
58647;SDS011;45992;45.920;20.074;2022-09-01T06:39:09;9.30;;;2.50;;
58647;SDS011;45992;45.920;20.074;2022-09-01T06:41:44;15.38;;;3.95;;
58647;SDS011;45992;45.920;20.074;2022-09-01T06:44:13;7.82;;;2.30;;
58647;SDS011;45992;45.920;20.074;2022-09-01T06:46:39;7.32;;;2.22;;
58647;SDS011;45992;45.920;20.074;2022-09-01T06:49:05;6.63;;;2.25;;
58647;SDS011;45992;45.920;20.074;2022-09-01T06:51:35;5.60;;;2.20;;
58647;SDS011;45992;45.920;20.074;2022-09-01T06:54:01;5.50;;;2.22;;
58647;SDS011;45992;45.920;20.074;2022-09-01T06:56:28;7.53;;;2.45;;
58647;SDS011;45992;45.920;20.074;2022-09-01T06:58:55;6.65;;;2.50;;
58647;SDS011;45992;45.920;20.074;2022-09-01T07:01:22;7.90;;;3.83;;
58647;SDS011;45992;45.920;20.074;2022-09-01T07:03:50;7.65;;;4.20;;
58647;SDS011;45992;45.920;20.074;2022-09-01T07:08:43;13.73;;;7.13;;
58647;SDS011;45992;45.920;20.074;2022-09-01T07:11:20;14.60;;;11.18;;
58647;SDS011;45992;45.920;20.074;2022-09-01T07:13:53;13.27;;;9.60;;
58647;SDS011;45992;45.920;20.074;2022-09-01T07:16:21;19.38;;;17.50;;
58647;SDS011;45992;45.920;20.074;2022-09-01T07:18:48;17.85;;;14.15;;
58647;SDS011;45992;45.920;20.074;2022-09-01T07:21:15;11.38;;;5.78;;
58647;SDS011;45992;45.920;20.074;2022-09-01T07:23:41;12.65;;;5.35;;
58647;SDS011;45992;45.920;20.074;2022-09-01T07:28:34;12.82;;;6.00;;
58647;SDS011;45992;45.920;20.074;2022-09-01T07:31:00;7.88;;;5.25;;
58647;SDS011;45992;45.920;20.074;2022-09-01T07:33:29;7.60;;;4.75;;
58647;SDS011;45992;45.920;20.074;2022-09-01T07:38:22;9.38;;;5.07;;
58647;SDS011;45992;45.920;20.074;2022-09-01T07:40:48;7.72;;;4.65;;
58647;SDS011;45992;45.920;20.074;2022-09-01T07:43:20;8.30;;;5.20;;
58647;SDS011;45992;45.920;20.074;2022-09-01T07:45:49;9.35;;;5.22;;
58647;SDS011;45992;45.920;20.074;2022-09-01T07:48:16;10.02;;;5.50;;
58647;SDS011;45992;45.920;20.074;2022-09-01T07:50:46;9.93;;;5.80;;
58647;SDS011;45992;45.920;20.074;2022-09-01T07:53:14;9.13;;;5.80;;
58647;SDS011;45992;45.920;20.074;2022-09-01T07:55:42;9.65;;;5.72;;
58647;SDS011;45992;45.920;20.074;2022-09-01T07:58:08;9.85;;;5.18;;
58647;SDS011;45992;45.920;20.074;2022-09-01T08:00:34;8.70;;;6.20;;
58647;SDS011;45992;45.920;20.074;2022-09-01T08:03:01;9.00;;;5.72;;
58647;SDS011;45992;45.920;20.074;2022-09-01T08:05:27;8.73;;;5.93;;
58647;SDS011;45992;45.920;20.074;2022-09-01T08:10:39;8.93;;;5.63;;
58647;SDS011;45992;45.920;20.074;2022-09-01T08:13:06;9.93;;;6.00;;
58647;SDS011;45992;45.920;20.074;2022-09-01T08:15:32;10.13;;;6.40;;
58647;SDS011;45992;45.920;20.074;2022-09-01T08:17:58;9.52;;;6.22;;
58647;SDS011;45992;45.920;20.074;2022-09-01T08:20:24;10.15;;;6.10;;
58647;SDS011;45992;45.920;20.074;2022-09-01T08:22:50;10.15;;;6.30;;
58647;SDS011;45992;45.920;20.074;2022-09-01T08:25:16;9.30;;;5.25;;
58647;SDS011;45992;45.920;20.074;2022-09-01T08:27:42;9.02;;;5.60;;
58647;SDS011;45992;45.920;20.074;2022-09-01T08:30:09;11.23;;;5.18;;
58647;SDS011;45992;45.920;20.074;2022-09-01T08:32:37;10.55;;;5.32;;
58647;SDS011;45992;45.920;20.074;2022-09-01T08:35:04;8.63;;;4.97;;
58647;SDS011;45992;45.920;20.074;2022-09-01T08:37:31;8.82;;;4.93;;
58647;SDS011;45992;45.920;20.074;2022-09-01T08:39:57;8.68;;;4.47;;
58647;SDS011;45992;45.920;20.074;2022-09-01T08:42:29;10.48;;;4.72;;
58647;SDS011;45992;45.920;20.074;2022-09-01T08:45:12;9.25;;;5.57;;
58647;SDS011;45992;45.920;20.074;2022-09-01T08:47:40;9.07;;;5.40;;
58647;SDS011;45992;45.920;20.074;2022-09-01T08:50:07;8.82;;;5.25;;
58647;SDS011;45992;45.920;20.074;2022-09-01T08:52:44;8.65;;;5.25;;
58647;SDS011;45992;45.920;20.074;2022-09-01T08:57:42;8.30;;;5.65;;
58647;SDS011;45992;45.920;20.074;2022-09-01T09:00:10;8.88;;;5.55;;
58647;SDS011;45992;45.920;20.074;2022-09-01T09:18:23;10.30;;;5.85;;
58647;SDS011;45992;45.920;20.074;2022-09-01T09:20:52;9.02;;;5.25;;
58647;SDS011;45992;45.920;20.074;2022-09-01T09:23:29;11.27;;;5.53;;
58647;SDS011;45992;45.920;20.074;2022-09-01T09:25:56;8.63;;;5.75;;
58647;SDS011;45992;45.920;20.074;2022-09-01T09:28:22;12.57;;;6.18;;
58647;SDS011;45992;45.920;20.074;2022-09-01T09:30:48;11.43;;;6.50;;
58647;SDS011;45992;45.920;20.074;2022-09-01T09:33:36;10.88;;;5.60;;
58647;SDS011;45992;45.920;20.074;2022-09-01T09:36:16;8.23;;;6.15;;
58647;SDS011;45992;45.920;20.074;2022-09-01T09:38:43;9.18;;;6.38;;
58647;SDS011;45992;45.920;20.074;2022-09-01T09:41:17;9.63;;;6.30;;
58647;SDS011;45992;45.920;20.074;2022-09-01T09:44:03;8.63;;;6.28;;
58647;SDS011;45992;45.920;20.074;2022-09-01T09:51:45;7.93;;;6.10;;
58647;SDS011;45992;45.920;20.074;2022-09-01T09:54:14;9.13;;;5.78;;
58647;SDS011;45992;45.920;20.074;2022-09-01T09:56:42;8.23;;;5.75;;
58647;SDS011;45992;45.920;20.074;2022-09-01T09:59:19;9.55;;;6.07;;
58647;SDS011;45992;45.920;20.074;2022-09-01T10:01:47;8.18;;;5.80;;
58647;SDS011;45992;45.920;20.074;2022-09-01T10:04:29;8.77;;;5.53;;
58647;SDS011;45992;45.920;20.074;2022-09-01T10:06:55;8.00;;;5.82;;
58647;SDS011;45992;45.920;20.074;2022-09-01T10:14:24;8.60;;;5.53;;
58647;SDS011;45992;45.920;20.074;2022-09-01T10:16:55;8.82;;;5.47;;
58647;SDS011;45992;45.920;20.074;2022-09-01T10:19:24;7.80;;;4.82;;
58647;SDS011;45992;45.920;20.074;2022-09-01T10:21:52;8.70;;;5.18;;
58647;SDS011;45992;45.920;20.074;2022-09-01T10:24:32;8.63;;;4.53;;
58647;SDS011;45992;45.920;20.074;2022-09-01T10:27:00;8.88;;;5.15;;
58647;SDS011;45992;45.920;20.074;2022-09-01T10:31:59;7.68;;;4.97;;
58647;SDS011;45992;45.920;20.074;2022-09-01T10:34:27;8.13;;;4.60;;
58647;SDS011;45992;45.920;20.074;2022-09-01T10:36:54;8.15;;;5.32;;
58647;SDS011;45992;45.920;20.074;2022-09-01T10:39:21;8.05;;;5.20;;
58647;SDS011;45992;45.920;20.074;2022-09-01T10:41:49;7.90;;;4.60;;
58647;SDS011;45992;45.920;20.074;2022-09-01T10:44:25;8.45;;;4.40;;
58647;SDS011;45992;45.920;20.074;2022-09-01T10:46:56;7.45;;;4.10;;
58647;SDS011;45992;45.920;20.074;2022-09-01T10:51:49;6.93;;;3.80;;
58647;SDS011;45992;45.920;20.074;2022-09-01T10:57:00;6.93;;;4.05;;
58647;SDS011;45992;45.920;20.074;2022-09-01T10:59:27;8.45;;;3.33;;
58647;SDS011;45992;45.920;20.074;2022-09-01T11:04:22;7.30;;;3.35;;
58647;SDS011;45992;45.920;20.074;2022-09-01T11:09:31;6.95;;;3.60;;
58647;SDS011;45992;45.920;20.074;2022-09-01T11:14:50;11.85;;;4.20;;
58647;SDS011;45992;45.920;20.074;2022-09-01T11:17:23;8.43;;;3.67;;
58647;SDS011;45992;45.920;20.074;2022-09-01T11:19:55;7.85;;;3.95;;
58647;SDS011;45992;45.920;20.074;2022-09-01T11:22:32;7.07;;;3.50;;
58647;SDS011;45992;45.920;20.074;2022-09-01T11:30:14;8.02;;;3.67;;
58647;SDS011;45992;45.920;20.074;2022-09-01T11:32:40;8.27;;;4.05;;
58647;SDS011;45992;45.920;20.074;2022-09-01T11:35:13;11.40;;;3.80;;
58647;SDS011;45992;45.920;20.074;2022-09-01T11:37:40;7.03;;;3.17;;
58647;SDS011;45992;45.920;20.074;2022-09-01T11:42:40;6.68;;;3.38;;
58647;SDS011;45992;45.920;20.074;2022-09-01T11:45:21;9.02;;;4.32;;
58647;SDS011;45992;45.920;20.074;2022-09-01T11:47:49;8.63;;;4.00;;
58647;SDS011;45992;45.920;20.074;2022-09-01T11:52:42;10.77;;;3.28;;
58647;SDS011;45992;45.920;20.074;2022-09-01T11:55:17;9.85;;;4.25;;
58647;SDS011;45992;45.920;20.074;2022-09-01T11:57:52;8.00;;;3.72;;
58647;SDS011;45992;45.920;20.074;2022-09-01T12:00:24;6.13;;;3.30;;
58647;SDS011;45992;45.920;20.074;2022-09-01T12:02:51;7.80;;;3.70;;
58647;SDS011;45992;45.920;20.074;2022-09-01T12:05:36;7.60;;;4.00;;
58647;SDS011;45992;45.920;20.074;2022-09-01T12:08:12;8.73;;;3.88;;
58647;SDS011;45992;45.920;20.074;2022-09-01T12:10:39;6.47;;;3.28;;
58647;SDS011;45992;45.920;20.074;2022-09-01T12:13:19;6.07;;;3.20;;
58647;SDS011;45992;45.920;20.074;2022-09-01T12:15:58;7.85;;;3.88;;
58647;SDS011;45992;45.920;20.074;2022-09-01T12:18:29;8.68;;;3.90;;
58647;SDS011;45992;45.920;20.074;2022-09-01T12:20:58;7.00;;;3.50;;
58647;SDS011;45992;45.920;20.074;2022-09-01T12:23:33;7.50;;;3.70;;
58647;SDS011;45992;45.920;20.074;2022-09-01T12:26:10;6.93;;;3.30;;
58647;SDS011;45992;45.920;20.074;2022-09-01T12:28:37;9.50;;;3.50;;
58647;SDS011;45992;45.920;20.074;2022-09-01T12:31:16;7.78;;;4.00;;
58647;SDS011;45992;45.920;20.074;2022-09-01T12:33:43;7.43;;;3.47;;
58647;SDS011;45992;45.920;20.074;2022-09-01T12:38:45;7.40;;;3.40;;
58647;SDS011;45992;45.920;20.074;2022-09-01T12:46:52;7.05;;;3.35;;
58647;SDS011;45992;45.920;20.074;2022-09-01T12:49:20;6.45;;;3.28;;
58647;SDS011;45992;45.920;20.074;2022-09-01T12:51:49;7.55;;;3.50;;
58647;SDS011;45992;45.920;20.074;2022-09-01T12:54:16;8.35;;;3.42;;
58647;SDS011;45992;45.920;20.074;2022-09-01T12:56:49;7.35;;;3.40;;
58647;SDS011;45992;45.920;20.074;2022-09-01T12:59:23;7.20;;;3.22;;
58647;SDS011;45992;45.920;20.074;2022-09-01T13:01:49;8.15;;;3.55;;
58647;SDS011;45992;45.920;20.074;2022-09-01T13:04:29;7.03;;;3.13;;
58647;SDS011;45992;45.920;20.074;2022-09-01T13:07:00;8.90;;;3.40;;
58647;SDS011;45992;45.920;20.074;2022-09-01T13:09:27;12.00;;;3.45;;
58647;SDS011;45992;45.920;20.074;2022-09-01T13:12:07;7.80;;;3.47;;
58647;SDS011;45992;45.920;20.074;2022-09-01T13:14:33;8.63;;;3.70;;
58647;SDS011;45992;45.920;20.074;2022-09-01T13:16:59;9.50;;;4.30;;
58647;SDS011;45992;45.920;20.074;2022-09-01T13:21:52;7.65;;;3.28;;
58647;SDS011;45992;45.920;20.074;2022-09-01T13:24:18;9.57;;;3.25;;
58647;SDS011;45992;45.920;20.074;2022-09-01T13:26:44;7.28;;;3.92;;
58647;SDS011;45992;45.920;20.074;2022-09-01T13:29:10;7.95;;;3.38;;
58647;SDS011;45992;45.920;20.074;2022-09-01T13:31:36;7.65;;;4.32;;
58647;SDS011;45992;45.920;20.074;2022-09-01T13:34:02;11.13;;;4.03;;
58647;SDS011;45992;45.920;20.074;2022-09-01T13:36:28;9.57;;;4.63;;
58647;SDS011;45992;45.920;20.074;2022-09-01T13:38:54;10.93;;;4.90;;
58647;SDS011;45992;45.920;20.074;2022-09-01T13:41:21;14.88;;;6.43;;
58647;SDS011;45992;45.920;20.074;2022-09-01T13:43:47;9.15;;;5.32;;
58647;SDS011;45992;45.920;20.074;2022-09-01T13:46:13;6.65;;;3.60;;
58647;SDS011;45992;45.920;20.074;2022-09-01T13:48:39;8.15;;;4.50;;
58647;SDS011;45992;45.920;20.074;2022-09-01T13:51:05;6.43;;;3.13;;
58647;SDS011;45992;45.920;20.074;2022-09-01T13:53:31;10.77;;;5.25;;
58647;SDS011;45992;45.920;20.074;2022-09-01T13:55:57;8.35;;;5.18;;
58647;SDS011;45992;45.920;20.074;2022-09-01T13:58:23;8.82;;;3.70;;
58647;SDS011;45992;45.920;20.074;2022-09-01T14:00:49;10.20;;;4.07;;
58647;SDS011;45992;45.920;20.074;2022-09-01T14:03:16;8.50;;;4.53;;
58647;SDS011;45992;45.920;20.074;2022-09-01T14:05:44;9.13;;;3.78;;
58647;SDS011;45992;45.920;20.074;2022-09-01T14:08:10;6.82;;;3.78;;
58647;SDS011;45992;45.920;20.074;2022-09-01T14:10:39;8.55;;;4.32;;
58647;SDS011;45992;45.920;20.074;2022-09-01T14:13:05;10.15;;;4.85;;
58647;SDS011;45992;45.920;20.074;2022-09-01T14:15:31;8.32;;;4.00;;
58647;SDS011;45992;45.920;20.074;2022-09-01T14:17:58;8.55;;;3.50;;
58647;SDS011;45992;45.920;20.074;2022-09-01T14:22:51;6.63;;;3.58;;
58647;SDS011;45992;45.920;20.074;2022-09-01T14:25:17;6.55;;;3.15;;
58647;SDS011;45992;45.920;20.074;2022-09-01T14:27:45;8.57;;;3.53;;
58647;SDS011;45992;45.920;20.074;2022-09-01T14:30:15;7.18;;;3.70;;
58647;SDS011;45992;45.920;20.074;2022-09-01T14:32:41;8.80;;;3.42;;
58647;SDS011;45992;45.920;20.074;2022-09-01T14:35:07;7.25;;;2.90;;
58647;SDS011;45992;45.920;20.074;2022-09-01T14:37:36;6.07;;;2.78;;
58647;SDS011;45992;45.920;20.074;2022-09-01T14:40:02;8.02;;;3.03;;
58647;SDS011;45992;45.920;20.074;2022-09-01T14:42:29;7.28;;;2.92;;
58647;SDS011;45992;45.920;20.074;2022-09-01T14:44:55;9.90;;;3.33;;
58647;SDS011;45992;45.920;20.074;2022-09-01T14:47:21;7.35;;;3.03;;
58647;SDS011;45992;45.920;20.074;2022-09-01T14:49:49;6.57;;;3.03;;
58647;SDS011;45992;45.920;20.074;2022-09-01T14:52:15;6.60;;;2.80;;
58647;SDS011;45992;45.920;20.074;2022-09-01T14:54:42;7.28;;;3.20;;
58647;SDS011;45992;45.920;20.074;2022-09-01T14:57:08;5.78;;;2.60;;
58647;SDS011;45992;45.920;20.074;2022-09-01T14:59:35;8.30;;;3.63;;
58647;SDS011;45992;45.920;20.074;2022-09-01T15:02:01;9.10;;;3.53;;
58647;SDS011;45992;45.920;20.074;2022-09-01T15:06:53;8.00;;;4.40;;
58647;SDS011;45992;45.920;20.074;2022-09-01T15:09:20;10.38;;;4.60;;
58647;SDS011;45992;45.920;20.074;2022-09-01T15:11:46;7.47;;;3.30;;
58647;SDS011;45992;45.920;20.074;2022-09-01T15:14:12;6.80;;;3.05;;
58647;SDS011;45992;45.920;20.074;2022-09-01T15:16:39;6.25;;;2.78;;
58647;SDS011;45992;45.920;20.074;2022-09-01T15:19:09;7.63;;;2.85;;
58647;SDS011;45992;45.920;20.074;2022-09-01T15:21:36;7.55;;;3.10;;
58647;SDS011;45992;45.920;20.074;2022-09-01T15:26:28;7.13;;;3.08;;
58647;SDS011;45992;45.920;20.074;2022-09-01T15:28:55;10.75;;;3.15;;
58647;SDS011;45992;45.920;20.074;2022-09-01T15:31:21;12.38;;;3.67;;
58647;SDS011;45992;45.920;20.074;2022-09-01T15:33:48;6.03;;;2.85;;
58647;SDS011;45992;45.920;20.074;2022-09-01T15:36:18;11.02;;;3.60;;
58647;SDS011;45992;45.920;20.074;2022-09-01T15:38:44;8.95;;;3.50;;
58647;SDS011;45992;45.920;20.074;2022-09-01T15:41:17;6.53;;;3.40;;
58647;SDS011;45992;45.920;20.074;2022-09-01T15:43:44;7.93;;;3.30;;
58647;SDS011;45992;45.920;20.074;2022-09-01T15:46:10;8.60;;;3.33;;
58647;SDS011;45992;45.920;20.074;2022-09-01T15:48:37;6.50;;;3.40;;
58647;SDS011;45992;45.920;20.074;2022-09-01T15:51:48;6.85;;;3.13;;
58647;SDS011;45992;45.920;20.074;2022-09-01T15:53:50;7.70;;;3.72;;
58647;SDS011;45992;45.920;20.074;2022-09-01T15:56:16;9.57;;;3.50;;
58647;SDS011;45992;45.920;20.074;2022-09-01T15:58:43;8.32;;;3.78;;
58647;SDS011;45992;45.920;20.074;2022-09-01T16:03:35;7.47;;;3.70;;
58647;SDS011;45992;45.920;20.074;2022-09-01T16:06:01;7.65;;;3.95;;
58647;SDS011;45992;45.920;20.074;2022-09-01T16:08:27;9.18;;;3.92;;
58647;SDS011;45992;45.920;20.074;2022-09-01T16:10:53;7.93;;;3.80;;
58647;SDS011;45992;45.920;20.074;2022-09-01T16:13:20;6.95;;;3.45;;
58647;SDS011;45992;45.920;20.074;2022-09-01T16:16:04;8.52;;;3.78;;
58647;SDS011;45992;45.920;20.074;2022-09-01T16:18:37;6.28;;;3.15;;
58647;SDS011;45992;45.920;20.074;2022-09-01T16:23:43;9.10;;;3.83;;
58647;SDS011;45992;45.920;20.074;2022-09-01T16:26:10;8.25;;;3.40;;
58647;SDS011;45992;45.920;20.074;2022-09-01T16:28:36;11.65;;;3.80;;
58647;SDS011;45992;45.920;20.074;2022-09-01T16:31:13;9.45;;;4.05;;
58647;SDS011;45992;45.920;20.074;2022-09-01T16:33:44;7.78;;;3.28;;
58647;SDS011;45992;45.920;20.074;2022-09-01T16:43:48;8.85;;;3.47;;
58647;SDS011;45992;45.920;20.074;2022-09-01T16:46:26;7.15;;;2.83;;
58647;SDS011;45992;45.920;20.074;2022-09-01T16:49:16;10.82;;;4.00;;